Time;durP1;ratioP1;P1;durP2;ratioP2;P2;SDS_P1;SDS_P2;PMS_P1;PMS_P2;Temp;Humidity;BMP_temperature;BMP_pressure;BME280_temperature;BME280_humidity;BME280_pressure;Samples;Min_cycle;Max_cycle;Signal;HPM_P1;HPM_P2
2021/10/23 00:01:17;;;;;;;14.80;7.85;;;;;;;11.14;47.74;99995.16;1647967;86;21584;-61
2021/10/23 00:03:44;;;;;;;10.40;7.03;;;;;;;11.18;47.53;99995.88;1655177;85;21359;-62
2021/10/23 00:06:10;;;;;;;;;;;;;;;11.21;47.05;99991.48;1656506;85;21063;-59
2021/10/23 00:08:36;;;;;;;10.20;6.27;;;;;;;11.26;46.52;99994.88;1640616;85;20122;-61
2021/10/23 00:11:02;;;;;;;10.80;5.67;;;;;;;11.20;46.34;99989.02;1650017;86;21019;-60
2021/10/23 00:13:29;;;;;;;7.03;5.60;;;;;;;11.20;46.17;99991.69;1655132;86;21073;-62
2021/10/23 00:15:56;;;;;;;9.07;5.80;;;;;;;11.23;46.05;99983.29;1635718;85;21040;-61
2021/10/23 00:18:22;;;;;;;;;;;;;;;11.24;45.86;99988.92;1656681;86;21473;-61
2021/10/23 00:20:48;;;;;;;5.13;4.27;;;;;;;11.26;45.60;99992.20;1649505;85;20118;-61
2021/10/23 00:23:15;;;;;;;7.28;4.72;;;;;;;11.21;45.13;99984.82;1654352;84;21056;-61
2021/10/23 00:25:41;;;;;;;8.43;4.37;;;;;;;11.21;44.52;99978.67;1681792;84;20976;-62
2021/10/23 00:28:08;;;;;;;;;;;;;;;11.21;44.56;99978.15;1685419;84;21025;-60
2021/10/23 00:30:36;;;;;;;7.40;4.83;;;;;;;11.20;44.00;99967.67;1673636;84;20140;-61
2021/10/23 00:33:02;;;;;;;6.00;4.33;;;;;;;11.05;43.61;99955.83;1685778;84;21052;-63
2021/10/23 00:35:29;;;;;;;;;;;;;;;11.09;43.67;99974.41;1673182;84;21124;-60
2021/10/23 00:37:58;;;;;;;7.80;4.77;;;;;;;11.07;43.79;99978.60;1680589;84;20177;-59
2021/10/23 00:40:25;;;;;;;5.33;4.13;;;;;;;11.00;43.86;99976.45;1676453;84;21035;-61
2021/10/23 00:42:53;;;;;;;6.87;4.30;;;;;;;11.00;43.91;99979.12;1668909;84;21009;-64
2021/10/23 00:45:20;;;;;;;5.97;4.43;;;;;;;10.98;43.87;99973.16;1658982;83;20967;-59
2021/10/23 00:50:22;;;;;;;8.13;4.37;;;;;;;10.95;43.84;99959.41;1818798;77;23893;-70
2021/10/23 00:52:49;;;;;;;8.50;5.12;;;;;;;10.86;43.81;99965.41;1801593;79;21242;-60
2021/10/23 00:55:16;;;;;;;6.00;4.23;;;;;;;10.84;43.74;99974.12;1774713;79;20996;-60
2021/10/23 00:57:42;;;;;;;;;;;;;;;10.80;43.68;99977.69;1698320;83;20998;-62
2021/10/23 01:00:10;;;;;;;8.53;5.17;;;;;;;10.80;43.63;99983.02;1696604;83;20152;-60
2021/10/23 01:02:37;;;;;;;8.63;5.60;;;;;;;10.72;43.68;99973.88;1704444;82;21472;-60
2021/10/23 01:05:05;;;;;;;7.40;5.20;;;;;;;10.68;43.75;99981.92;1700952;82;21004;-61
2021/10/23 01:07:35;;;;;;;4.13;3.63;;;;;;;10.65;43.74;99980.49;1689721;82;20982;-61
2021/10/23 01:10:10;;;;;;;9.87;4.57;;;;;;;10.61;43.62;99989.91;1709160;82;21112;-59
2021/10/23 01:12:43;;;;;;;7.00;4.17;;;;;;;10.58;43.70;99980.96;1689967;82;21495;-60
2021/10/23 01:15:30;;;;;;;6.03;3.77;;;;;;;10.50;43.50;99981.13;1678260;84;21000;-59
2021/10/23 01:18:01;;;;;;;7.10;4.40;;;;;;;10.46;43.52;99982.03;1666936;84;21046;-60
2021/10/23 01:20:30;;;;;;;4.10;3.60;;;;;;;10.41;43.56;99987.63;1677927;84;21039;-62
2021/10/23 01:22:56;;;;;;;6.53;4.63;;;;;;;10.37;43.65;99985.05;1670528;83;21125;-60
2021/10/23 01:25:26;;;;;;;;;;;;;;;10.32;43.68;99975.81;1669788;84;21032;-60
2021/10/23 01:27:57;;;;;;;5.63;4.00;;;;;;;10.28;43.76;99986.52;1665703;84;20128;-60
2021/10/23 01:30:23;;;;;;;6.43;4.30;;;;;;;10.21;43.88;99981.65;1675429;84;21072;-75
2021/10/23 01:32:50;;;;;;;;;;;;;;;10.17;43.97;99984.39;1666923;85;21039;-61
2021/10/23 01:35:17;;;;;;;11.18;4.00;;;;;;;10.14;44.08;99986.10;1728582;81;20758;-62
2021/10/23 01:37:46;;;;;;;6.13;3.40;;;;;;;10.06;44.26;99991.58;1710117;81;21065;-59
2021/10/23 01:40:24;;;;;;;9.30;3.43;;;;;;;10.03;44.38;99998.09;1712069;81;21024;-61
2021/10/23 01:42:51;;;;;;;5.90;3.60;;;;;;;10.00;44.48;99993.66;1705060;82;21112;-60
2021/10/23 01:45:17;;;;;;;;;;;;;;;9.99;44.59;99990.70;1722548;80;21006;-59
2021/10/23 01:47:44;;;;;;;8.65;3.47;;;;;;;9.97;44.64;99991.41;1761805;80;20169;-62
2021/10/23 01:50:18;;;;;;;10.20;3.92;;;;;;;9.89;44.84;99982.53;1762401;80;21087;-60
2021/10/23 01:52:45;;;;;;;5.40;3.63;;;;;;;9.88;45.00;99988.05;1757668;80;21050;-63
2021/10/23 01:55:13;;;;;;;4.53;3.40;;;;;;;9.84;45.12;99988.13;1755867;80;21033;-62
2021/10/23 01:57:40;;;;;;;5.20;3.87;;;;;;;9.82;45.13;99982.17;1743313;81;21053;-60
2021/10/23 02:00:12;;;;;;;7.43;4.40;;;;;;;9.80;45.29;99983.69;1732607;81;21108;-63
2021/10/23 02:02:42;;;;;;;6.13;3.53;;;;;;;9.80;45.48;99984.20;1721354;81;21655;-64
2021/10/23 02:05:10;;;;;;;11.20;5.37;;;;;;;9.74;45.72;99989.27;1716104;81;21102;-61
2021/10/23 02:07:36;;;;;;;6.03;4.67;;;;;;;9.67;45.90;99977.73;1739626;81;20985;-59
2021/10/23 02:10:07;;;;;;;7.43;4.13;;;;;;;9.63;46.14;99980.47;1721749;81;21147;-62
2021/10/23 02:12:35;;;;;;;10.67;5.57;;;;;;;9.60;46.30;99982.69;1729270;80;21045;-63
2021/10/23 02:15:02;;;;;;;7.10;5.17;;;;;;;9.56;46.47;99984.90;1727755;81;21227;-61
2021/10/23 02:17:28;;;;;;;7.00;5.13;;;;;;;9.52;46.63;99979.13;1710726;81;21071;-59
2021/10/23 02:19:55;;;;;;;5.67;4.63;;;;;;;9.50;46.81;99989.14;1724724;81;21030;-61
2021/10/23 02:22:21;;;;;;;6.45;5.08;;;;;;;9.47;46.88;99985.52;1723953;81;21600;-63
2021/10/23 02:24:48;;;;;;;9.73;5.07;;;;;;;9.47;47.01;99978.05;1713069;81;21081;-61
2021/10/23 02:27:14;;;;;;;8.93;5.87;;;;;;;9.44;47.07;99975.28;1719694;82;21169;-61
2021/10/23 02:29:41;;;;;;;8.83;4.85;;;;;;;9.44;47.11;99982.44;1719273;81;21187;-60
2021/10/23 02:32:08;;;;;;;9.07;4.87;;;;;;;9.44;47.33;99989.09;1729377;81;21128;-60
2021/10/23 02:34:35;;;;;;;9.10;4.43;;;;;;;9.40;47.45;99988.64;1724756;81;21548;-59
2021/10/23 02:37:02;;;;;;;9.43;5.90;;;;;;;9.38;47.59;99981.36;1718313;81;21307;-62
2021/10/23 02:39:29;;;;;;;8.77;5.00;;;;;;;9.37;47.71;99982.88;1717055;81;21461;-62
2021/10/23 02:41:56;;;;;;;8.15;5.05;;;;;;;9.34;47.78;99992.88;1728005;81;21079;-61
2021/10/23 02:44:22;;;;;;;6.00;4.95;;;;;;;9.32;47.94;99992.73;1725091;81;21136;-60
2021/10/23 02:46:48;;;;;;;9.48;4.53;;;;;;;9.29;48.16;100006.43;1727640;81;21027;-60
2021/10/23 02:49:14;;;;;;;9.38;4.92;;;;;;;9.27;48.31;100005.80;1730887;82;21117;-64
2021/10/23 02:51:39;;;;;;;9.75;5.67;;;;;;;9.24;48.49;99997.66;1723486;81;21012;-61
2021/10/23 02:54:08;;;;;;;8.00;5.67;;;;;;;9.22;48.57;99999.69;1723131;81;20990;-60
2021/10/23 02:56:35;;;;;;;9.00;5.10;;;;;;;9.22;48.83;100002.87;1692422;83;21036;-61
2021/10/23 02:59:01;;;;;;;11.97;5.70;;;;;;;9.21;48.92;100014.50;1725407;82;21038;-61
2021/10/23 03:01:27;;;;;;;13.32;6.05;;;;;;;9.19;49.10;100004.56;1727732;81;21009;-61
2021/10/23 03:03:54;;;;;;;9.03;5.70;;;;;;;9.14;49.21;100007.28;1744585;82;21069;-62
2021/10/23 03:06:22;;;;;;;9.03;6.50;;;;;;;9.13;49.35;100006.13;1677443;83;21042;-61
2021/10/23 03:08:48;;;;;;;15.25;6.90;;;;;;;9.11;49.52;100010.81;1759655;80;21497;-61
2021/10/23 03:11:15;;;;;;;11.03;6.83;;;;;;;9.09;49.88;100007.52;1705856;83;21032;-59
2021/10/23 03:13:42;;;;;;;14.60;6.37;;;;;;;9.04;49.93;100009.42;1733676;81;21549;-61
2021/10/23 03:16:10;;;;;;;10.10;6.27;;;;;;;9.03;50.10;100015.73;1741578;80;21022;-60
2021/10/23 03:18:37;;;;;;;8.70;6.10;;;;;;;9.00;50.11;100005.46;1717156;82;21541;-59
2021/10/23 03:21:04;;;;;;;9.63;6.00;;;;;;;9.02;50.11;100011.42;1691376;84;21498;-59
2021/10/23 03:23:32;;;;;;;6.87;5.40;;;;;;;9.02;50.10;100006.61;1722496;81;21022;-61
2021/10/23 03:25:58;;;;;;;14.15;5.97;;;;;;;9.00;49.98;100006.80;1733572;82;21039;-68
2021/10/23 03:28:24;;;;;;;7.78;5.33;;;;;;;9.01;49.80;100006.31;1723266;81;21068;-63
2021/10/23 03:30:51;;;;;;;8.77;5.27;;;;;;;9.03;49.64;100002.95;1733776;82;21024;-61
2021/10/23 03:33:17;;;;;;;15.03;5.12;;;;;;;9.04;49.41;99998.79;1724901;81;21038;-62
2021/10/23 03:35:43;;;;;;;12.47;5.33;;;;;;;9.07;49.31;99994.41;1674786;84;21536;-60
2021/10/23 03:38:10;;;;;;;9.88;4.37;;;;;;;9.11;49.10;99991.69;1734224;81;21549;-60
2021/10/23 03:40:37;;;;;;;8.30;5.03;;;;;;;9.15;48.79;99986.34;1728957;81;21577;-64
2021/10/23 03:43:03;;;;;;;7.55;4.58;;;;;;;9.19;48.44;99984.09;1731436;81;20988;-61
2021/10/23 03:45:30;;;;;;;6.47;4.10;;;;;;;9.23;48.07;99993.37;1731443;81;21094;-59
2021/10/23 03:47:56;;;;;;;10.38;4.40;;;;;;;9.28;48.01;99992.28;1736311;81;20950;-60
2021/10/23 03:50:22;;;;;;;11.12;5.20;;;;;;;9.29;47.92;99997.94;1733106;81;21092;-63
2021/10/23 03:52:48;;;;;;;4.58;3.83;;;;;;;9.32;47.83;100002.89;1729276;81;20970;-60
2021/10/23 03:55:14;;;;;;;7.20;5.12;;;;;;;9.32;47.85;99991.41;1733235;81;21057;-62
2021/10/23 03:57:40;;;;;;;6.35;4.08;;;;;;;9.32;47.81;100003.37;1754784;80;21050;-60
2021/10/23 04:00:09;;;;;;;6.95;3.60;;;;;;;9.30;47.70;99996.09;1747032;81;21049;-63
2021/10/23 04:02:41;;;;;;;5.40;3.80;;;;;;;9.27;47.71;99997.30;1739346;80;21568;-62
2021/10/23 04:05:09;;;;;;;9.10;4.10;;;;;;;9.26;47.61;99998.81;1749216;80;21497;-61
2021/10/23 04:07:35;;;;;;;7.63;4.03;;;;;;;9.23;47.61;99999.17;1754418;80;21462;-60
2021/10/23 04:10:05;;;;;;;8.37;3.77;;;;;;;9.21;47.54;100005.19;1753983;81;20982;-60
2021/10/23 04:12:33;;;;;;;7.43;3.83;;;;;;;9.20;47.38;99994.25;1760882;80;21457;-59
2021/10/23 04:15:00;;;;;;;4.12;3.35;;;;;;;9.21;47.42;100007.85;1761891;80;21026;-60
2021/10/23 04:17:28;;;;;;;8.57;3.70;;;;;;;9.19;47.39;100009.87;1757391;80;21026;-61
2021/10/23 04:19:55;;;;;;;5.63;3.47;;;;;;;9.18;47.37;100008.25;1755388;80;20982;-61
2021/10/23 04:22:21;;;;;;;7.28;3.85;;;;;;;9.16;47.38;100012.42;1750278;80;21066;-62
2021/10/23 04:24:51;;;;;;;6.47;3.50;;;;;;;9.15;47.42;100006.77;1753959;81;21046;-59
2021/10/23 04:27:19;;;;;;;6.67;4.93;;;;;;;9.15;47.44;100010.75;1750669;80;20990;-59
2021/10/23 04:29:47;;;;;;;6.37;3.80;;;;;;;9.14;47.42;100005.95;1742309;80;21512;-61
2021/10/23 04:32:13;;;;;;;4.73;2.93;;;;;;;9.17;47.40;100019.37;1746908;81;21010;-62
2021/10/23 04:34:39;;;;;;;;;;;;;;;9.16;47.42;100015.89;1753393;80;20979;-61
2021/10/23 04:37:08;;;;;;;7.53;3.20;;;;;;;9.14;47.42;100011.27;1759592;80;20100;-62
2021/10/23 04:39:36;;;;;;;5.70;3.83;;;;;;;9.07;47.50;100019.66;1751654;81;21086;-65
2021/10/23 04:42:03;;;;;;;12.43;3.50;;;;;;;9.06;47.62;100018.52;1742029;80;20986;-71
2021/10/23 04:44:30;;;;;;;6.47;4.00;;;;;;;9.05;47.58;100029.66;1750872;80;20968;-60
2021/10/23 04:46:56;;;;;;;7.47;4.25;;;;;;;9.03;47.62;100026.38;1752275;80;21077;-64
2021/10/23 04:49:22;;;;;;;4.53;3.22;;;;;;;9.04;47.62;100031.17;1751040;80;21529;-60
2021/10/23 04:51:49;;;;;;;10.30;3.67;;;;;;;9.03;47.70;100038.34;1740760;81;21000;-61
2021/10/23 04:54:16;;;;;;;7.22;4.10;;;;;;;9.02;47.64;100043.31;1751908;80;21022;-60
2021/10/23 04:56:42;;;;;;;;;;;;;;;9.03;47.64;100046.82;1757515;80;21036;-64
2021/10/23 04:59:10;;;;;;;4.57;3.50;;;;;;;9.07;47.46;100054.23;1744772;81;20420;-60
2021/10/23 05:01:36;;;;;;;3.95;3.20;;;;;;;9.18;47.37;100046.80;1752832;80;21504;-66
2021/10/23 05:04:03;;;;;;;5.05;3.80;;;;;;;9.41;46.97;100054.12;1747598;80;21096;-61
2021/10/23 05:06:30;;;;;;;5.63;3.20;;;;;;;9.71;46.32;100048.70;1740053;80;21081;-61
2021/10/23 05:08:56;;;;;;;8.50;4.47;;;;;;;10.14;46.16;100056.16;1753845;81;20998;-62
2021/10/23 05:11:23;;;;;;;5.30;3.40;;;;;;;10.76;44.93;100049.77;1753908;81;21071;-63
2021/10/23 05:13:49;;;;;;;10.85;4.17;;;;;;;11.33;42.90;100042.41;1741047;80;21065;-62
2021/10/23 05:16:15;;;;;;;9.15;4.22;;;;;;;11.77;42.43;100050.44;1754497;81;21069;-61
2021/10/23 05:18:41;;;;;;;4.40;3.17;;;;;;;12.24;41.09;100049.98;1746134;80;21002;-66
2021/10/23 05:21:09;;;;;;;4.58;3.83;;;;;;;12.69;40.01;100041.27;1761881;81;21501;-63
2021/10/23 05:23:35;;;;;;;5.62;3.45;;;;;;;12.96;39.71;100047.88;1752530;80;21209;-60
2021/10/23 05:26:01;;;;;;;4.92;3.67;;;;;;;13.37;39.01;100048.89;1738221;81;21005;-64
2021/10/23 05:28:27;;;;;;;;;;;;;;;13.87;37.78;100048.70;1737214;80;21053;-64
2021/10/23 05:30:53;;;;;;;7.55;3.67;;;;;;;14.24;36.96;100047.46;1759075;80;20870;-64
2021/10/23 05:33:19;;;;;;;5.83;3.50;;;;;;;14.47;36.35;100052.23;1748304;80;21022;-63
2021/10/23 05:35:45;;;;;;;5.58;3.10;;;;;;;14.60;35.61;100061.52;1744577;80;20990;-62
2021/10/23 05:38:12;;;;;;;6.75;3.08;;;;;;;14.59;35.58;100064.70;1757680;80;21033;-63
2021/10/23 05:40:38;;;;;;;;;;;;;;;14.68;35.57;100064.42;1739306;80;21037;-62
2021/10/23 05:43:05;;;;;;;6.15;3.45;;;;;;;14.99;35.36;100066.14;1756906;81;20132;-63
2021/10/23 05:45:33;;;;;;;6.53;3.37;;;;;;;15.38;34.45;100070.20;1753036;80;21089;-63
2021/10/23 05:47:59;;;;;;;7.37;3.58;;;;;;;15.82;33.53;100067.89;1738418;81;21033;-66
2021/10/23 05:50:25;;;;;;;7.00;3.80;;;;;;;16.22;33.02;100080.70;1762171;80;21030;-62
2021/10/23 05:52:52;;;;;;;9.68;3.12;;;;;;;16.31;32.86;100082.01;1751521;81;21016;-64
2021/10/23 05:55:21;;;;;;;7.80;3.25;;;;;;;16.05;32.61;100085.44;1720776;81;21081;-62
2021/10/23 05:57:47;;;;;;;7.33;2.80;;;;;;;15.35;33.33;100086.79;1704088;83;21072;-63
2021/10/23 06:00:15;;;;;;;5.78;2.77;;;;;;;14.62;34.50;100090.28;1749724;81;21659;-65
2021/10/23 06:02:44;;;;;;;5.78;4.08;;;;;;;14.10;35.44;100086.44;1730974;81;20991;-67
2021/10/23 06:05:10;;;;;;;9.98;3.47;;;;;;;13.76;36.09;100090.38;1731327;81;21466;-62
2021/10/23 06:07:39;;;;;;;9.88;3.72;;;;;;;13.44;36.70;100089.00;1746986;81;21018;-64
2021/10/23 06:10:10;;;;;;;7.83;4.40;;;;;;;13.16;37.19;100089.29;1736642;81;21062;-62
2021/10/23 06:12:36;;;;;;;6.45;4.28;;;;;;;12.82;37.90;100085.88;1719939;82;20996;-63
2021/10/23 06:15:07;;;;;;;7.50;3.50;;;;;;;12.51;38.38;100093.22;1729036;81;21070;-65
2021/10/23 06:17:33;;;;;;;5.72;3.20;;;;;;;12.30;39.00;100103.61;1727861;81;21549;-61
2021/10/23 06:20:00;;;;;;;9.85;4.60;;;;;;;12.13;39.44;100105.37;1729340;81;21007;-62
2021/10/23 06:22:26;;;;;;;7.65;3.52;;;;;;;11.86;39.78;100109.28;1734769;80;21136;-62
2021/10/23 06:24:53;;;;;;;6.97;3.22;;;;;;;11.71;40.25;100114.50;1738630;80;21037;-61
2021/10/23 06:27:19;;;;;;;4.80;3.47;;;;;;;11.55;40.95;100109.02;1735943;80;21057;-60
2021/10/23 06:29:46;;;;;;;11.40;3.58;;;;;;;11.36;41.11;100111.89;1748264;80;20990;-62
2021/10/23 06:32:12;;;;;;;6.15;3.95;;;;;;;11.29;41.50;100099.88;1741054;80;21012;-63
2021/10/23 06:34:40;;;;;;;7.10;3.77;;;;;;;11.30;41.61;100112.17;1727649;81;21534;-63
2021/10/23 06:37:09;;;;;;;8.87;3.93;;;;;;;11.35;41.61;100115.60;1706967;81;21860;-65
2021/10/23 06:39:37;;;;;;;3.70;3.03;;;;;;;11.27;41.68;100116.59;1713577;81;21533;-64
2021/10/23 06:42:05;;;;;;;6.62;3.40;;;;;;;11.17;41.92;100113.45;1737897;81;21045;-73
2021/10/23 06:44:31;;;;;;;7.47;4.00;;;;;;;11.10;42.31;100118.77;1711541;81;21024;-64
2021/10/23 06:46:59;;;;;;;7.90;4.90;;;;;;;11.12;42.22;100115.91;1723987;83;21012;-61
2021/10/23 06:49:25;;;;;;;11.43;4.58;;;;;;;11.18;42.18;100116.45;1724214;83;21027;-61
2021/10/23 06:51:52;;;;;;;7.20;3.30;;;;;;;11.18;42.08;100119.11;1725552;81;21528;-64
2021/10/23 06:54:18;;;;;;;7.35;3.40;;;;;;;11.12;42.34;100118.06;1707303;81;21633;-61
2021/10/23 06:56:45;;;;;;;7.83;3.90;;;;;;;11.13;42.24;100115.69;1701618;82;21070;-63
2021/10/23 06:59:12;;;;;;;10.63;3.87;;;;;;;11.13;42.29;100120.20;1715881;83;21054;-61
2021/10/23 07:01:40;;;;;;;6.33;2.97;;;;;;;11.15;42.30;100118.16;1723525;83;21483;-61
2021/10/23 07:04:06;;;;;;;8.05;2.85;;;;;;;11.16;42.35;100122.48;1704430;83;21016;-59
2021/10/23 07:06:33;;;;;;;7.17;3.03;;;;;;;11.12;42.35;100127.39;1699882;83;20980;-62
2021/10/23 07:08:59;;;;;;;7.60;2.93;;;;;;;11.13;42.49;100125.55;1706489;83;21115;-62
2021/10/23 07:11:26;;;;;;;5.37;2.77;;;;;;;11.15;42.36;100114.16;1709123;83;21072;-61
2021/10/23 07:13:53;;;;;;;7.17;2.70;;;;;;;11.23;42.42;100128.69;1724083;83;20995;-61
2021/10/23 07:16:21;;;;;;;5.90;2.20;;;;;;;11.32;42.22;100128.84;1707473;83;21063;-63
2021/10/23 07:18:47;;;;;;;8.28;2.67;;;;;;;11.41;42.19;100132.96;1716941;83;21012;-62
2021/10/23 07:21:15;;;;;;;10.23;2.37;;;;;;;11.53;41.88;100128.38;1710454;83;21043;-61
2021/10/23 07:23:41;;;;;;;8.05;3.20;;;;;;;11.60;41.69;100132.75;1713631;83;21009;-63
2021/10/23 07:26:08;;;;;;;6.95;3.00;;;;;;;11.62;41.45;100116.52;1712369;83;21464;-63
2021/10/23 07:28:34;;;;;;;10.78;3.00;;;;;;;11.75;41.31;100143.77;1720200;83;21015;-64
2021/10/23 07:31:00;;;;;;;6.15;2.95;;;;;;;11.74;41.22;100148.30;1701488;83;20988;-61
2021/10/23 07:33:27;;;;;;;6.73;2.10;;;;;;;11.71;41.32;100143.34;1704230;83;20990;-60
2021/10/23 07:35:54;;;;;;;6.67;2.90;;;;;;;11.72;41.41;100133.51;1694789;83;21049;-61
2021/10/23 07:38:20;;;;;;;8.63;3.25;;;;;;;11.76;41.49;100146.77;1680941;83;21122;-61
2021/10/23 07:40:47;;;;;;;3.27;2.00;;;;;;;11.81;41.34;100134.45;1681037;84;21169;-64
2021/10/23 07:43:15;;;;;;;9.20;2.37;;;;;;;11.84;41.11;100134.55;1700396;84;21604;-62
2021/10/23 07:45:43;;;;;;;5.95;2.27;;;;;;;11.78;41.21;100138.86;1708406;83;21041;-62
2021/10/23 07:48:09;;;;;;;7.95;2.30;;;;;;;11.76;41.34;100137.42;1705588;84;21528;-61
2021/10/23 07:50:37;;;;;;;5.22;2.62;;;;;;;11.78;41.38;100151.39;1690620;84;21236;-66
2021/10/23 07:53:03;;;;;;;7.85;2.87;;;;;;;11.79;41.51;100154.36;1691025;84;21020;-62
2021/10/23 07:55:32;;;;;;;11.53;3.42;;;;;;;11.82;41.28;100156.11;1678251;84;20983;-61
2021/10/23 07:58:01;;;;;;;5.70;2.33;;;;;;;11.81;41.32;100158.49;1684995;84;20990;-62
2021/10/23 08:00:29;;;;;;;4.10;2.53;;;;;;;11.84;41.36;100156.73;1688467;84;21122;-61
2021/10/23 08:03:01;;;;;;;6.62;2.77;;;;;;;11.93;41.28;100153.94;1694679;84;21066;-63
2021/10/23 08:05:36;;;;;;;6.53;2.20;;;;;;;11.94;41.21;100150.22;1693179;84;21564;-63
2021/10/23 08:08:04;;;;;;;3.98;1.85;;;;;;;12.03;41.30;100167.19;1697699;84;21031;-64
2021/10/23 08:10:33;;;;;;;3.70;2.30;;;;;;;12.12;41.20;100167.84;1695648;84;21006;-64
2021/10/23 08:13:04;;;;;;;6.20;1.82;;;;;;;12.25;41.18;100165.19;1705368;83;21032;-64
2021/10/23 08:15:33;;;;;;;9.63;1.37;;;;;;;12.38;40.82;100164.91;1684848;83;21521;-67
2021/10/23 08:18:02;;;;;;;8.63;1.32;;;;;;;12.41;40.24;100165.32;1692543;84;21105;-66
2021/10/23 08:20:32;;;;;;;5.72;1.75;;;;;;;12.38;40.16;100183.09;1691427;84;21096;-62
2021/10/23 08:23:01;;;;;;;7.05;1.30;;;;;;;12.35;40.37;100187.50;1722628;81;21614;-63
2021/10/23 08:25:27;;;;;;;7.07;1.67;;;;;;;12.34;40.11;100190.37;1719582;81;21035;-64
2021/10/23 08:27:55;;;;;;;8.20;2.02;;;;;;;12.35;40.23;100208.06;1720165;81;21136;-66
2021/10/23 08:30:23;;;;;;;5.92;2.00;;;;;;;12.42;40.47;100201.70;1739310;81;21016;-62
2021/10/23 08:32:49;;;;;;;15.30;2.65;;;;;;;12.52;39.46;100203.97;1723796;81;21157;-60
2021/10/23 08:35:18;;;;;;;5.95;1.85;;;;;;;12.54;39.35;100200.58;1709902;81;21501;-62
2021/10/23 08:37:48;;;;;;;9.70;2.17;;;;;;;12.59;39.35;100210.15;1728629;81;21118;-66
2021/10/23 08:40:16;;;;;;;7.60;1.95;;;;;;;12.69;39.38;100225.78;1716045;81;21123;-64
2021/10/23 08:42:44;;;;;;;5.45;1.45;;;;;;;12.75;39.16;100213.44;1713901;81;21075;-68
2021/10/23 08:45:12;;;;;;;;;;;;;;;12.76;39.18;100220.45;1719126;81;21038;-63
2021/10/23 08:47:42;;;;;;;2.92;1.50;;;;;;;12.73;39.23;100216.31;1726486;81;20498;-65
2021/10/23 08:50:17;;;;;;;6.30;2.70;;;;;;;12.65;39.46;100220.54;1705616;81;21008;-63
2021/10/23 08:52:49;;;;;;;6.50;2.05;;;;;;;12.62;39.66;100232.97;1720489;81;21475;-63
2021/10/23 08:55:17;;;;;;;7.70;1.95;;;;;;;12.60;39.83;100229.19;1708200;81;21283;-62
2021/10/23 08:57:46;;;;;;;6.83;1.87;;;;;;;12.58;39.81;100219.70;1727302;81;21040;-63
2021/10/23 09:00:15;;;;;;;10.13;2.58;;;;;;;12.54;39.79;100208.59;1719720;81;21047;-65
2021/10/23 09:02:42;;;;;;;8.70;2.80;;;;;;;12.56;39.79;100222.58;1719298;81;21051;-63
2021/10/23 09:05:09;;;;;;;12.50;2.75;;;;;;;12.60;39.66;100233.69;1711070;81;21582;-62
2021/10/23 09:07:44;;;;;;;;;;;;;;;12.57;39.43;100232.27;1730332;82;21024;-62
2021/10/23 09:10:12;;;;;;;9.98;2.12;;;;;;;12.52;39.67;100232.56;1726855;81;20136;-62
2021/10/23 09:12:40;;;;;;;5.08;3.15;;;;;;;12.43;39.89;100245.28;1717318;81;21083;-64
2021/10/23 09:15:16;;;;;;;4.67;1.65;;;;;;;12.43;39.76;100237.27;1717296;81;21047;-62
2021/10/23 09:17:52;;;;;;;4.85;2.25;;;;;;;12.45;39.81;100235.20;1716762;81;21051;-61
2021/10/23 09:20:21;;;;;;;7.92;1.50;;;;;;;12.48;39.75;100251.38;1714789;81;21310;-61
2021/10/23 09:22:51;;;;;;;2.80;1.55;;;;;;;12.51;39.55;100255.81;1727650;81;21035;-62
2021/10/23 09:25:27;;;;;;;1.75;1.17;;;;;;;12.54;39.51;100236.67;1708159;82;21078;-64
2021/10/23 09:28:06;;;;;;;3.10;1.30;;;;;;;12.51;39.53;100239.77;1701046;82;21012;-66
2021/10/23 09:30:43;;;;;;;5.58;2.15;;;;;;;12.42;39.42;100243.66;1725574;81;21112;-62
2021/10/23 09:33:13;;;;;;;11.97;1.35;;;;;;;12.32;39.69;100248.06;1711646;81;21024;-63
2021/10/23 09:35:43;;;;;;;5.03;1.32;;;;;;;12.25;39.86;100237.34;1739190;80;21019;-64
2021/10/23 09:38:13;;;;;;;5.65;1.20;;;;;;;12.29;39.79;100240.95;1740265;80;21084;-62
2021/10/23 09:40:47;;;;;;;5.03;1.02;;;;;;;12.30;39.58;100235.91;1749946;80;21015;-68
2021/10/23 09:43:28;;;;;;;3.25;1.20;;;;;;;12.29;39.31;100227.59;1728521;80;21104;-65
2021/10/23 09:46:02;;;;;;;4.72;0.90;;;;;;;12.30;39.41;100242.59;1730852;80;21094;-67
2021/10/23 09:48:43;;;;;;;2.52;1.15;;;;;;;12.31;39.63;100254.94;1744747;80;21059;-61
2021/10/23 09:51:30;;;;;;;2.60;0.68;;;;;;;12.27;39.54;100247.31;1752963;80;21051;-62
2021/10/23 09:54:00;;;;;;;2.67;0.82;;;;;;;12.19;39.67;100246.17;1700321;83;21030;-66
2021/10/23 09:56:34;;;;;;;3.50;0.90;;;;;;;12.09;40.09;100249.72;1749050;80;21266;-64
2021/10/23 09:59:07;;;;;;;6.50;1.20;;;;;;;11.87;40.31;100227.64;1740930;80;21039;-62
2021/10/23 10:01:40;;;;;;;4.60;1.20;;;;;;;12.10;40.07;100254.05;1733355;80;21523;-62
2021/10/23 10:04:09;;;;;;;6.78;1.00;;;;;;;12.15;39.87;100260.96;1675376;83;21072;-62
2021/10/23 10:06:44;;;;;;;11.20;1.47;;;;;;;12.21;39.93;100260.15;1732721;80;21586;-62
2021/10/23 10:09:20;;;;;;;1.52;0.62;;;;;;;12.33;39.50;100260.91;1756225;80;21043;-63
2021/10/23 10:11:48;;;;;;;4.95;1.62;;;;;;;12.36;39.33;100249.30;1740672;80;21504;-62
2021/10/23 10:14:20;;;;;;;5.80;1.60;;;;;;;12.44;39.35;100268.33;1749855;80;21063;-62
2021/10/23 10:16:55;;;;;;;4.67;1.57;;;;;;;12.49;39.37;100264.55;1741285;80;21098;-63
2021/10/23 10:19:23;;;;;;;;;;;;;;;12.55;39.23;100262.91;1757013;80;21055;-65
2021/10/23 10:21:54;;;;;;;7.80;1.02;;;;;;;12.49;39.55;100264.55;1728529;80;20140;-63
2021/10/23 10:24:28;;;;;;;2.58;1.40;;;;;;;12.40;39.42;100259.89;1732900;80;21032;-62
2021/10/23 10:27:05;;;;;;;1.80;1.32;;;;;;;12.37;39.44;100262.14;1753598;80;21051;-63
2021/10/23 10:29:51;;;;;;;7.87;2.15;;;;;;;12.38;39.32;100270.48;1728223;80;21200;-62
2021/10/23 10:32:36;;;;;;;3.90;0.80;;;;;;;12.43;39.26;100268.00;1743370;80;21008;-65
2021/10/23 10:43:12;;;;;;;3.85;0.72;;;;;;;12.35;38.67;100288.25;1727095;81;21079;-62
2021/10/23 10:45:48;;;;;;;3.85;0.80;;;;;;;12.33;38.60;100286.30;1736759;81;21033;-66
2021/10/23 10:48:34;;;;;;;4.33;0.80;;;;;;;12.37;38.63;100291.54;1734851;81;21095;-61
2021/10/23 10:51:12;;;;;;;3.87;0.88;;;;;;;12.42;38.02;100281.08;1744255;81;21638;-63
2021/10/23 10:53:52;;;;;;;2.30;1.22;;;;;;;12.47;38.04;100278.63;1722914;81;21049;-63
2021/10/23 10:56:19;;;;;;;4.80;0.80;;;;;;;12.49;37.71;100285.94;1731082;81;21033;-63
2021/10/23 10:58:57;;;;;;;3.37;0.75;;;;;;;12.50;37.78;100278.20;1725086;81;21066;-62
2021/10/23 11:01:30;;;;;;;5.47;0.80;;;;;;;12.52;37.75;100280.16;1746703;81;21147;-62
2021/10/23 11:04:07;;;;;;;4.05;0.50;;;;;;;12.50;36.76;100281.41;1731767;81;21657;-69
2021/10/23 11:06:49;;;;;;;1.75;0.40;;;;;;;12.48;36.65;100283.45;1733745;81;21577;-63
2021/10/23 11:09:30;;;;;;;12.75;0.60;;;;;;;12.41;35.71;100288.77;1717831;81;21033;-65
2021/10/23 11:12:04;;;;;;;11.28;1.52;;;;;;;12.33;35.08;100283.09;1747628;81;21034;-69
2021/10/23 11:14:35;;;;;;;7.45;1.40;;;;;;;12.26;35.14;100285.77;1726919;81;21045;-64
2021/10/23 11:17:15;;;;;;;6.30;0.95;;;;;;;12.25;35.27;100285.44;1738439;82;21045;-62
2021/10/23 11:19:55;;;;;;;4.37;0.75;;;;;;;12.24;35.05;100282.47;1730829;81;21055;-62
2021/10/23 11:22:32;;;;;;;7.33;0.93;;;;;;;12.15;34.87;100277.48;1723302;81;21166;-62
2021/10/23 11:25:07;;;;;;;4.87;0.70;;;;;;;12.06;35.18;100286.20;1738235;81;21399;-61
2021/10/23 11:27:47;;;;;;;2.07;0.63;;;;;;;11.96;35.66;100290.58;1738492;81;21041;-65
2021/10/23 11:30:23;;;;;;;6.90;0.95;;;;;;;11.86;36.32;100287.41;1736983;81;22179;-64
2021/10/23 11:32:57;;;;;;;5.15;1.22;;;;;;;11.79;36.57;100279.86;1728238;81;21472;-61
2021/10/23 11:35:40;;;;;;;2.93;0.93;;;;;;;11.75;36.76;100303.98;1755163;81;21024;-62
2021/10/23 11:38:15;;;;;;;5.28;1.32;;;;;;;11.77;36.91;100304.61;1747434;81;21024;-62
2021/10/23 11:40:41;;;;;;;4.20;0.60;;;;;;;11.80;36.97;100302.38;1754774;80;21078;-66
2021/10/23 11:43:18;;;;;;;4.45;0.93;;;;;;;11.84;36.77;100312.97;1757061;81;21012;-63
2021/10/23 11:45:45;;;;;;;9.73;1.00;;;;;;;11.85;36.82;100305.80;1745575;80;21052;-61
2021/10/23 11:48:17;;;;;;;2.67;0.55;;;;;;;11.84;36.65;100315.64;1735895;81;21026;-65
2021/10/23 11:50:48;;;;;;;7.87;0.50;;;;;;;11.86;35.87;100324.27;1743076;81;21014;-64